Ammanford, United Kingdom
Current Conditions -  °F | °C
As of 4:50 AM on Tuesday 27 Jan 2015 (Local Time) from EGOP Reporting Station
Overcast Overcast  
Wind Chill: 38°   Ceiling: 3200
Heat Index: 45°   Visibility: 6mi
Dew Point: 39°   Wind: 13mph
Humidity: 81%   Direction: 280°W
Pressure: 30.42"   Gusts: NA
Location:  51.79°N, 3.99°W
Report Text: EGOP 270450Z AUTO 28011KT 9999 // OVC032/// 07/04 Q1030
Loading
Personal Weather Stations






























Interactive Weather Map New forecast layout! Learn more

10-Day Weather Forecast

Advertisements
Track Severe Weather on mobile